createdAt,value
2018-12-26T00:00:34.649Z,1005.38
2018-12-26T00:01:34.929Z,1005.35
2018-12-26T00:02:34.934Z,1005.38
2018-12-26T00:03:35.078Z,1005.32
2018-12-26T00:04:35.225Z,1005.31
2018-12-26T00:05:35.371Z,1005.31
2018-12-26T00:06:35.504Z,1005.23
2018-12-26T00:07:35.642Z,1005.23
2018-12-26T00:08:35.786Z,1005.26
2018-12-26T00:09:35.930Z,1005.25
2018-12-26T00:10:36.075Z,1005.21
2018-12-26T00:11:36.218Z,1005.21
2018-12-26T00:12:36.362Z,1005.17
2018-12-26T00:13:36.506Z,1005.11
2018-12-26T00:14:36.653Z,1005.13
2018-12-26T00:15:36.796Z,1005.17
2018-12-26T00:16:36.946Z,1005.19
2018-12-26T00:17:37.084Z,1005.20
2018-12-26T00:18:37.231Z,1005.16
2018-12-26T00:19:37.493Z,1005.14
2018-12-26T00:20:37.515Z,1005.16
2018-12-26T00:21:37.660Z,1005.17
2018-12-26T00:22:37.806Z,1005.16
2018-12-26T00:23:37.950Z,1005.14
2018-12-26T00:24:38.093Z,1005.14
2018-12-26T00:25:38.233Z,1005.17
2018-12-26T00:26:38.379Z,1005.17
2018-12-26T00:27:38.523Z,1005.14
2018-12-26T00:28:38.668Z,1005.14
2018-12-26T00:29:38.814Z,1005.13
2018-12-26T00:30:39.062Z,1005.12
2018-12-26T00:31:39.116Z,1005.09
2018-12-26T00:32:39.277Z,1005.11
2018-12-26T00:33:39.422Z,1005.15
2018-12-26T00:34:39.562Z,1005.13
2018-12-26T00:35:39.709Z,1005.13
2018-12-26T00:36:39.854Z,1005.10
2018-12-26T00:37:39.999Z,1005.12
2018-12-26T00:38:40.142Z,1005.11
2018-12-26T00:39:40.286Z,1005.12
2018-12-26T00:40:40.428Z,1005.14
2018-12-26T00:41:40.574Z,1005.18
2018-12-26T00:42:40.715Z,1005.19
2018-12-26T00:43:40.859Z,1005.15
2018-12-26T00:44:41.005Z,1005.15
2018-12-26T00:45:41.149Z,1005.10
2018-12-26T00:46:41.294Z,1005.08
2018-12-26T00:47:41.433Z,1005.14
2018-12-26T00:48:41.575Z,1005.11
2018-12-26T00:49:41.716Z,1005.12
2018-12-26T00:50:41.863Z,1005.15
2018-12-26T00:51:42.058Z,1005.17
2018-12-26T00:52:42.152Z,1005.16
2018-12-26T00:53:42.297Z,1005.15
2018-12-26T00:54:42.438Z,1005.19
2018-12-26T00:55:42.585Z,1005.13
2018-12-26T00:56:42.729Z,1005.16
2018-12-26T00:57:42.872Z,1005.19
2018-12-26T00:58:43.013Z,1005.18
2018-12-26T00:59:43.156Z,1005.19
2018-12-26T01:00:43.302Z,1005.16
2018-12-26T01:01:43.445Z,1005.15
2018-12-26T01:02:43.588Z,1005.14
2018-12-26T01:03:43.749Z,1005.13
2018-12-26T01:04:43.871Z,1005.16
2018-12-26T01:05:44.023Z,1005.13
2018-12-26T01:06:44.231Z,1005.12
2018-12-26T01:07:44.253Z,1005.07
2018-12-26T01:08:44.393Z,1005.06
2018-12-26T01:09:44.542Z,1005.04
2018-12-26T01:10:44.681Z,1005.00
2018-12-26T01:11:44.824Z,1005.04
2018-12-26T01:12:44.969Z,1005.02
2018-12-26T01:13:45.113Z,1005.01
2018-12-26T01:14:45.255Z,1005.01
2018-12-26T01:15:45.399Z,1005.04
2018-12-26T01:16:45.543Z,1005.01
2018-12-26T01:17:45.688Z,1005.06
2018-12-26T01:18:45.830Z,1005.05
2018-12-26T01:19:45.973Z,1005.05
2018-12-26T01:20:46.117Z,1005.02
2018-12-26T01:21:46.262Z,1005.07
2018-12-26T01:22:46.407Z,1005.03
2018-12-26T01:23:46.548Z,1005.04
2018-12-26T01:24:46.692Z,1005.03
2018-12-26T01:25:46.838Z,1005.03
2018-12-26T01:26:46.981Z,1005.08
2018-12-26T01:27:47.142Z,1005.04
2018-12-26T01:28:47.301Z,1005.04
2018-12-26T01:29:47.501Z,1005.05
2018-12-26T01:30:47.585Z,1005.07
2018-12-26T01:31:47.727Z,1004.97
2018-12-26T01:32:47.867Z,1005.03
2018-12-26T01:33:48.013Z,1005.02
2018-12-26T01:34:48.158Z,1005.00
2018-12-26T01:35:48.303Z,1004.98
2018-12-26T01:36:48.446Z,1005.00
2018-12-26T01:37:48.590Z,1004.99
2018-12-26T01:38:48.733Z,1004.95
2018-12-26T01:39:48.876Z,1004.91
2018-12-26T01:40:49.024Z,1004.87
2018-12-26T01:41:49.167Z,1004.80
2018-12-26T01:42:49.314Z,1004.84
2018-12-26T01:43:49.450Z,1004.86
2018-12-26T01:44:49.597Z,1004.83
2018-12-26T01:45:49.742Z,1004.82
2018-12-26T01:46:49.885Z,1004.81
2018-12-26T01:47:50.028Z,1004.82
2018-12-26T01:48:50.168Z,1004.80
2018-12-26T01:49:50.317Z,1004.79
2018-12-26T01:50:50.457Z,1004.78
2018-12-26T01:51:50.603Z,1004.79
2018-12-26T01:52:50.749Z,1004.80
2018-12-26T01:53:50.894Z,1004.82
2018-12-26T01:54:51.035Z,1004.82
2018-12-26T01:55:51.176Z,1004.88
2018-12-26T01:56:51.320Z,1004.88
2018-12-26T01:57:51.466Z,1004.90
2018-12-26T01:58:51.613Z,1004.94
2018-12-26T01:59:51.758Z,1004.94
2018-12-26T02:00:51.901Z,1004.97
2018-12-26T02:01:52.043Z,1004.94
2018-12-26T02:02:52.203Z,1004.89
2018-12-26T02:03:52.329Z,1004.88
2018-12-26T02:04:52.472Z,1004.87
2018-12-26T02:05:52.616Z,1004.86
2018-12-26T02:06:52.761Z,1004.89
2018-12-26T02:07:52.906Z,1004.91
2018-12-26T02:08:53.049Z,1004.94
2018-12-26T02:09:53.194Z,1004.94
2018-12-26T02:10:53.338Z,1004.93
2018-12-26T02:11:53.481Z,1004.94
2018-12-26T02:12:53.625Z,1004.94
2018-12-26T02:13:53.768Z,1004.97
2018-12-26T02:14:53.909Z,1004.98
2018-12-26T02:15:54.051Z,1004.93
2018-12-26T02:16:54.195Z,1004.94
2018-12-26T02:17:54.337Z,1004.97
2018-12-26T02:18:54.479Z,1004.96
2018-12-26T02:19:54.627Z,1004.96
2018-12-26T02:20:54.768Z,1004.91
2018-12-26T02:21:54.908Z,1004.96
2018-12-26T02:22:55.056Z,1004.90
2018-12-26T02:23:55.200Z,1004.88
2018-12-26T02:24:55.342Z,1004.87
2018-12-26T02:25:55.487Z,1004.84
2018-12-26T02:26:55.634Z,1004.83
2018-12-26T02:27:55.773Z,1004.81
2018-12-26T02:28:55.914Z,1004.83
2018-12-26T02:29:56.056Z,1004.82
2018-12-26T02:30:56.200Z,1004.84
2018-12-26T02:31:56.343Z,1004.85
2018-12-26T02:32:56.485Z,1004.86
2018-12-26T02:33:56.630Z,1004.84
2018-12-26T02:34:56.782Z,1004.87
2018-12-26T02:35:56.915Z,1004.85
2018-12-26T02:36:57.069Z,1004.85
2018-12-26T02:37:57.202Z,1004.86
2018-12-26T02:38:57.347Z,1004.85
2018-12-26T02:39:57.490Z,1004.82
2018-12-26T02:40:57.633Z,1004.83
2018-12-26T02:41:57.784Z,1004.82
2018-12-26T02:42:57.920Z,1004.81
2018-12-26T02:43:58.060Z,1004.74
2018-12-26T02:44:58.210Z,1004.79
2018-12-26T02:45:58.352Z,1004.76
2018-12-26T02:46:58.493Z,1004.76
2018-12-26T02:47:58.633Z,1004.70
2018-12-26T02:48:58.777Z,1004.70
2018-12-26T02:49:58.922Z,1004.71
2018-12-26T02:50:59.068Z,1004.71
2018-12-26T02:51:59.209Z,1004.69
2018-12-26T02:52:59.354Z,1004.71
2018-12-26T02:53:59.497Z,1004.70
2018-12-26T02:54:59.639Z,1004.68
2018-12-26T02:55:59.780Z,1004.70
2018-12-26T02:56:59.924Z,1004.67
2018-12-26T02:58:00.066Z,1004.67
2018-12-26T02:59:00.210Z,1004.69
2018-12-26T03:00:00.480Z,1004.67
2018-12-26T03:01:00.498Z,1004.64
2018-12-26T03:02:00.644Z,1004.64
2018-12-26T03:03:00.785Z,1004.61
2018-12-26T03:04:00.927Z,1004.58
2018-12-26T03:05:01.087Z,1004.56
2018-12-26T03:06:01.213Z,1004.56
2018-12-26T03:07:01.354Z,1004.59
2018-12-26T03:08:01.499Z,1004.59
2018-12-26T03:09:01.640Z,1004.60
2018-12-26T03:10:01.783Z,1004.59
2018-12-26T03:11:01.926Z,1004.62
2018-12-26T03:12:02.069Z,1004.57
2018-12-26T03:13:02.226Z,1004.56
2018-12-26T03:14:03.343Z,1004.56
2018-12-26T03:15:02.508Z,1004.49
2018-12-26T03:16:02.635Z,1004.49
2018-12-26T03:17:02.803Z,1004.44
2018-12-26T03:18:02.920Z,1004.41
2018-12-26T03:19:03.063Z,1004.39
2018-12-26T03:20:03.203Z,1004.35
2018-12-26T03:21:03.346Z,1004.35
2018-12-26T03:22:03.486Z,1004.37
2018-12-26T03:23:03.632Z,1004.37
2018-12-26T03:24:03.780Z,1004.39
2018-12-26T03:25:03.911Z,1004.41
2018-12-26T03:26:04.056Z,1004.43
2018-12-26T03:27:04.197Z,1004.44
2018-12-26T03:28:04.337Z,1004.46
2018-12-26T03:29:04.483Z,1004.44
2018-12-26T03:30:04.637Z,1004.46
2018-12-26T03:31:04.767Z,1004.48
2018-12-26T03:32:04.906Z,1004.48
2018-12-26T03:33:05.057Z,1004.49
2018-12-26T03:34:05.196Z,1004.47
2018-12-26T03:35:05.369Z,1004.51
2018-12-26T03:36:05.502Z,1004.48
2018-12-26T03:37:05.620Z,1004.47
2018-12-26T03:38:05.755Z,1004.44
2018-12-26T03:39:05.924Z,1004.47
2018-12-26T03:40:06.042Z,1004.47
2018-12-26T03:41:06.182Z,1004.48
2018-12-26T03:42:06.326Z,1004.41
2018-12-26T03:43:06.468Z,1004.46
2018-12-26T03:44:06.609Z,1004.49
2018-12-26T03:45:06.751Z,1004.48
2018-12-26T03:46:06.896Z,1004.51
2018-12-26T03:47:07.064Z,1004.51
2018-12-26T03:48:07.178Z,1004.51
2018-12-26T03:49:07.323Z,1004.50
2018-12-26T03:50:07.477Z,1004.51
2018-12-26T03:51:07.609Z,1004.43
2018-12-26T03:52:07.750Z,1004.42
2018-12-26T03:53:07.894Z,1004.39
2018-12-26T03:54:08.037Z,1004.36
2018-12-26T03:55:08.179Z,1004.31
2018-12-26T03:56:08.320Z,1004.33
2018-12-26T03:57:08.458Z,1004.30
2018-12-26T03:58:08.602Z,1004.24
2018-12-26T03:59:08.746Z,1004.27
2018-12-26T04:00:08.887Z,1004.28
2018-12-26T04:01:09.029Z,1004.28
2018-12-26T04:02:09.169Z,1004.24
2018-12-26T04:03:09.316Z,1004.25
2018-12-26T04:04:09.453Z,1004.27
2018-12-26T04:05:09.597Z,1004.24
2018-12-26T04:06:09.740Z,1004.25
2018-12-26T04:07:09.884Z,1004.22
2018-12-26T04:08:10.026Z,1004.24
2018-12-26T04:09:10.169Z,1004.29
2018-12-26T04:10:10.311Z,1004.27
2018-12-26T04:11:10.453Z,1004.31
2018-12-26T04:12:10.596Z,1004.33
2018-12-26T04:13:10.747Z,1004.31
2018-12-26T04:14:10.891Z,1004.32
2018-12-26T04:15:11.035Z,1004.33
2018-12-26T04:16:11.174Z,1004.35
2018-12-26T04:17:11.317Z,1004.34
2018-12-26T04:18:11.460Z,1004.37
2018-12-26T04:19:11.603Z,1004.33
2018-12-26T04:20:11.746Z,1004.34
2018-12-26T04:21:11.889Z,1004.36
2018-12-26T04:22:12.032Z,1004.36
2018-12-26T04:23:12.175Z,1004.34
2018-12-26T04:24:12.318Z,1004.34
2018-12-26T04:25:12.460Z,1004.34
2018-12-26T04:26:12.605Z,1004.37
2018-12-26T04:27:15.548Z,1004.38
2018-12-26T04:28:12.890Z,1004.35
2018-12-26T04:29:13.036Z,1004.40
2018-12-26T04:30:13.177Z,1004.42
2018-12-26T04:31:13.324Z,1004.42
2018-12-26T04:32:13.462Z,1004.39
2018-12-26T04:33:13.605Z,1004.38
2018-12-26T04:34:13.748Z,1004.34
2018-12-26T04:35:13.892Z,1004.30
2018-12-26T04:36:14.033Z,1004.29
2018-12-26T04:37:14.175Z,1004.27
2018-12-26T04:38:14.319Z,1004.23
2018-12-26T04:39:14.458Z,1004.19
2018-12-26T04:40:14.602Z,1004.19
2018-12-26T04:41:14.749Z,1004.15
2018-12-26T04:42:14.887Z,1004.14
2018-12-26T04:43:15.030Z,1004.11
2018-12-26T04:44:15.172Z,1004.01
2018-12-26T04:45:15.315Z,1003.98
2018-12-26T04:46:15.457Z,1003.93
2018-12-26T04:47:15.597Z,1003.93
2018-12-26T04:48:15.742Z,1003.94
2018-12-26T04:49:15.882Z,1003.91
2018-12-26T04:50:16.025Z,1003.88
2018-12-26T04:51:16.166Z,1003.87
2018-12-26T04:52:16.310Z,1003.91
2018-12-26T04:53:16.450Z,1003.97
2018-12-26T04:54:16.593Z,1003.99
2018-12-26T04:55:16.738Z,1003.95
2018-12-26T04:56:16.878Z,1003.92
2018-12-26T04:57:24.661Z,1003.93
2018-12-26T04:58:17.159Z,1003.87
2018-12-26T04:59:17.301Z,1003.90
2018-12-26T05:00:17.444Z,1003.94
2018-12-26T05:01:17.585Z,1003.95
2018-12-26T05:02:17.731Z,1004.00
2018-12-26T05:03:17.872Z,1004.08
2018-12-26T05:04:18.014Z,1004.09
2018-12-26T05:05:18.155Z,1004.20
2018-12-26T05:06:18.299Z,1004.20
2018-12-26T05:07:18.438Z,1004.26
2018-12-26T05:08:18.580Z,1004.24
2018-12-26T05:09:18.725Z,1004.24
2018-12-26T05:10:18.867Z,1004.21
2018-12-26T05:11:19.010Z,1004.21
2018-12-26T05:12:19.151Z,1004.23
2018-12-26T05:13:19.293Z,1004.20
2018-12-26T05:14:19.442Z,1004.23
2018-12-26T05:15:19.581Z,1004.22
2018-12-26T05:16:19.719Z,1004.23
2018-12-26T05:17:19.861Z,1004.24
2018-12-26T05:18:20.003Z,1004.24
2018-12-26T05:19:20.141Z,1004.22
2018-12-26T05:20:20.286Z,1004.22
2018-12-26T05:21:20.425Z,1004.20
2018-12-26T05:22:20.569Z,1004.16
2018-12-26T05:23:20.707Z,1004.08
2018-12-26T05:24:20.850Z,1004.08
2018-12-26T05:25:21.106Z,1004.06
2018-12-26T05:26:21.135Z,1004.09
2018-12-26T05:27:21.280Z,1004.08
2018-12-26T05:28:21.419Z,1004.09
2018-12-26T05:29:21.555Z,1004.06
2018-12-26T05:30:21.696Z,1004.09
2018-12-26T05:31:21.836Z,1004.11
2018-12-26T05:32:21.978Z,1004.15
2018-12-26T05:33:22.122Z,1004.09
2018-12-26T05:34:22.263Z,1004.06
2018-12-26T05:35:22.405Z,1004.06
2018-12-26T05:36:22.546Z,1004.04
2018-12-26T05:37:22.685Z,1004.03
2018-12-26T05:38:22.837Z,1003.98
2018-12-26T05:39:22.968Z,1003.92
2018-12-26T05:40:23.109Z,1003.93
2018-12-26T05:41:23.249Z,1003.88
2018-12-26T05:42:23.392Z,1003.92
2018-12-26T05:43:23.531Z,1003.91
2018-12-26T05:44:23.674Z,1003.97
2018-12-26T05:45:23.813Z,1003.98
2018-12-26T05:46:23.955Z,1004.06
2018-12-26T05:47:24.097Z,1004.09
2018-12-26T05:48:24.238Z,1004.10
2018-12-26T05:49:24.382Z,1004.16
2018-12-26T05:50:24.521Z,1004.15
2018-12-26T05:51:24.662Z,1004.17
2018-12-26T05:52:24.805Z,1004.16
2018-12-26T05:53:24.945Z,1004.18
2018-12-26T05:54:25.088Z,1004.16
2018-12-26T05:55:25.229Z,1004.06
2018-12-26T05:56:25.372Z,1004.06
2018-12-26T05:57:25.512Z,1004.05
2018-12-26T05:58:25.656Z,1004.00
2018-12-26T05:59:25.795Z,1004.01
2018-12-26T06:00:25.938Z,1004.03
2018-12-26T06:01:26.081Z,1004.06
2018-12-26T06:02:26.221Z,1004.11
2018-12-26T06:03:26.362Z,1004.14
2018-12-26T06:04:26.503Z,1004.16
2018-12-26T06:05:26.644Z,1004.16
2018-12-26T06:06:26.787Z,1004.13
2018-12-26T06:07:26.928Z,1004.13
2018-12-26T06:08:27.071Z,1004.11
2018-12-26T06:09:27.212Z,1004.09
2018-12-26T06:10:27.356Z,1004.11
2018-12-26T06:11:27.499Z,1004.12
2018-12-26T06:12:27.646Z,1004.13
2018-12-26T06:13:27.781Z,1004.18
2018-12-26T06:14:27.922Z,1004.15
2018-12-26T06:15:28.065Z,1004.15
2018-12-26T06:16:28.206Z,1004.13
2018-12-26T06:17:28.351Z,1004.13
2018-12-26T06:18:28.491Z,1004.17
2018-12-26T06:19:28.635Z,1004.16
2018-12-26T06:20:28.775Z,1004.17
2018-12-26T06:21:28.914Z,1004.18
2018-12-26T06:22:29.058Z,1004.14
2018-12-26T06:23:29.201Z,1004.17
2018-12-26T06:24:29.360Z,1004.18
2018-12-26T06:25:29.484Z,1004.14
2018-12-26T06:26:29.626Z,1004.17
2018-12-26T06:27:29.768Z,1004.10
2018-12-26T06:28:29.909Z,1004.05
2018-12-26T06:29:30.051Z,1004.08
2018-12-26T06:30:30.194Z,1004.07
2018-12-26T06:31:30.338Z,1004.10
2018-12-26T06:32:30.477Z,1004.08
2018-12-26T06:33:30.622Z,1004.10
2018-12-26T06:34:30.764Z,1004.12
2018-12-26T06:35:30.907Z,1004.14
2018-12-26T06:36:31.051Z,1004.15
2018-12-26T06:37:31.194Z,1004.20
2018-12-26T06:38:31.337Z,1004.19
2018-12-26T06:39:31.481Z,1004.22
2018-12-26T06:40:31.675Z,1004.23
2018-12-26T06:41:31.768Z,1004.25
2018-12-26T06:42:31.910Z,1004.28
2018-12-26T06:43:32.053Z,1004.28
2018-12-26T06:44:32.727Z,1004.28
2018-12-26T06:45:32.343Z,1004.31
2018-12-26T06:46:32.485Z,1004.31
2018-12-26T06:47:32.630Z,1004.30
2018-12-26T06:48:32.772Z,1004.33
2018-12-26T06:49:32.915Z,1004.33
2018-12-26T06:50:33.064Z,1004.35
2018-12-26T06:51:33.201Z,1004.34
2018-12-26T06:52:33.345Z,1004.33
2018-12-26T06:53:33.489Z,1004.35
2018-12-26T06:54:33.630Z,1004.35
2018-12-26T06:55:33.771Z,1004.34
2018-12-26T06:56:33.915Z,1004.41
2018-12-26T06:57:34.061Z,1004.43
2018-12-26T06:58:34.199Z,1004.40
2018-12-26T06:59:34.341Z,1004.40
2018-12-26T07:00:34.484Z,1004.38
2018-12-26T07:01:34.628Z,1004.34
2018-12-26T07:02:34.772Z,1004.35
2018-12-26T07:03:34.919Z,1004.34
2018-12-26T07:04:35.058Z,1004.40
2018-12-26T07:05:35.202Z,1004.41
2018-12-26T07:06:35.348Z,1004.45
2018-12-26T07:07:35.491Z,1004.47
2018-12-26T07:08:35.637Z,1004.49
2018-12-26T07:09:35.780Z,1004.48
2018-12-26T07:10:35.923Z,1004.41
2018-12-26T07:11:36.068Z,1004.45
2018-12-26T07:12:36.211Z,1004.46
2018-12-26T07:13:36.355Z,1004.46
2018-12-26T07:14:36.501Z,1004.44
2018-12-26T07:15:36.643Z,1004.44
2018-12-26T07:16:36.786Z,1004.43
2018-12-26T07:17:36.930Z,1004.46
2018-12-26T07:18:37.075Z,1004.41
2018-12-26T07:19:37.219Z,1004.42
2018-12-26T07:20:37.360Z,1004.48
2018-12-26T07:21:37.506Z,1004.47
2018-12-26T07:22:37.649Z,1004.54
2018-12-26T07:23:37.795Z,1004.54
2018-12-26T07:24:37.939Z,1004.59
2018-12-26T07:25:38.082Z,1004.60
2018-12-26T07:26:38.225Z,1004.60
2018-12-26T07:27:38.371Z,1004.60
2018-12-26T07:28:38.516Z,1004.61
2018-12-26T07:29:38.660Z,1004.62
2018-12-26T07:30:38.802Z,1004.63
2018-12-26T07:31:38.944Z,1004.64
2018-12-26T07:32:39.094Z,1004.66
2018-12-26T07:33:39.235Z,1004.65
2018-12-26T07:34:42.278Z,1004.67
2018-12-26T07:35:39.521Z,1004.68
2018-12-26T07:36:39.668Z,1004.66
2018-12-26T07:37:39.809Z,1004.67
2018-12-26T07:38:39.955Z,1004.66
2018-12-26T07:39:40.100Z,1004.62
2018-12-26T07:40:40.243Z,1004.57
2018-12-26T07:41:40.387Z,1004.56
2018-12-26T07:42:40.532Z,1004.55
2018-12-26T07:43:40.698Z,1004.56
2018-12-26T07:44:40.828Z,1004.53
2018-12-26T07:45:40.974Z,1004.51
2018-12-26T07:46:41.116Z,1004.51
2018-12-26T07:47:41.258Z,1004.46
2018-12-26T07:48:41.402Z,1004.45
2018-12-26T07:49:41.545Z,1004.51
2018-12-26T07:50:41.689Z,1004.48
2018-12-26T07:51:41.838Z,1004.51
2018-12-26T07:52:41.976Z,1004.53
2018-12-26T07:53:42.120Z,1004.52
2018-12-26T07:54:42.265Z,1004.54
2018-12-26T07:55:42.409Z,1004.58
2018-12-26T07:56:42.555Z,1004.60
2018-12-26T07:57:42.696Z,1004.55
2018-12-26T07:58:42.839Z,1004.54
2018-12-26T07:59:42.982Z,1004.54
2018-12-26T08:00:43.126Z,1004.56
2018-12-26T08:01:43.272Z,1004.54
2018-12-26T08:02:43.426Z,1004.56
2018-12-26T08:03:43.556Z,1004.58
2018-12-26T08:04:43.701Z,1004.57
2018-12-26T08:05:43.845Z,1004.57
2018-12-26T08:06:43.988Z,1004.58
2018-12-26T08:07:44.132Z,1004.57
2018-12-26T08:08:44.274Z,1004.57
2018-12-26T08:09:44.425Z,1004.55
2018-12-26T08:10:44.561Z,1004.53
2018-12-26T08:11:44.709Z,1004.51
2018-12-26T08:12:44.851Z,1004.50
2018-12-26T08:13:44.999Z,1004.48
2018-12-26T08:14:45.143Z,1004.47
2018-12-26T08:15:45.287Z,1004.52
2018-12-26T08:16:45.434Z,1004.54
2018-12-26T08:17:45.574Z,1004.55
2018-12-26T08:18:45.719Z,1004.53
2018-12-26T08:19:45.863Z,1004.52
2018-12-26T08:20:46.005Z,1004.50
2018-12-26T08:21:46.150Z,1004.53
2018-12-26T08:22:46.291Z,1004.53
2018-12-26T08:23:46.435Z,1004.57
2018-12-26T08:24:46.579Z,1004.56
2018-12-26T08:25:46.734Z,1004.60
2018-12-26T08:26:46.900Z,1004.58
2018-12-26T08:27:47.012Z,1004.60
2018-12-26T08:28:47.159Z,1004.57
2018-12-26T08:29:47.301Z,1004.53
2018-12-26T08:30:47.447Z,1004.55
2018-12-26T08:31:47.590Z,1004.53
2018-12-26T08:32:47.735Z,1004.58
2018-12-26T08:33:47.876Z,1004.59
2018-12-26T08:34:48.020Z,1004.69
2018-12-26T08:35:48.168Z,1004.73
2018-12-26T08:36:48.310Z,1004.68
2018-12-26T08:37:48.454Z,1004.65
2018-12-26T08:38:48.601Z,1004.60
2018-12-26T08:39:48.747Z,1004.58
2018-12-26T08:40:48.889Z,1004.59
2018-12-26T08:41:49.034Z,1004.59
2018-12-26T08:42:49.180Z,1004.57
2018-12-26T08:43:49.324Z,1004.58
2018-12-26T08:44:49.466Z,1004.62
2018-12-26T08:45:49.612Z,1004.66
2018-12-26T08:46:49.758Z,1004.61
2018-12-26T08:47:49.899Z,1004.63
2018-12-26T08:48:50.044Z,1004.62
2018-12-26T08:49:50.190Z,1004.63
2018-12-26T08:50:50.337Z,1004.64
2018-12-26T08:51:50.483Z,1004.65
2018-12-26T08:52:50.624Z,1004.65
2018-12-26T08:53:50.770Z,1004.65
2018-12-26T08:54:50.919Z,1004.63
2018-12-26T08:55:51.057Z,1004.66
2018-12-26T08:56:51.202Z,1004.67
2018-12-26T08:57:51.346Z,1004.69
2018-12-26T08:58:53.345Z,1004.65
2018-12-26T08:59:51.637Z,1004.68
2018-12-26T09:00:51.779Z,1004.65
2018-12-26T09:01:51.925Z,1004.70
2018-12-26T09:02:52.093Z,1004.71
2018-12-26T09:03:52.221Z,1004.68
2018-12-26T09:04:52.366Z,1004.63
2018-12-26T09:05:52.512Z,1004.65
2018-12-26T09:06:52.657Z,1004.66
2018-12-26T09:07:52.807Z,1004.71
2018-12-26T09:08:52.954Z,1004.77
2018-12-26T09:09:53.101Z,1004.76
2018-12-26T09:10:53.242Z,1004.77
2018-12-26T09:11:53.388Z,1004.77
2018-12-26T09:12:53.578Z,1004.78
2018-12-26T09:13:53.676Z,1004.75
2018-12-26T09:14:53.823Z,1004.74
2018-12-26T09:15:53.967Z,1004.75
2018-12-26T09:16:54.110Z,1004.72
2018-12-26T09:17:54.264Z,1004.77
2018-12-26T09:18:54.400Z,1004.74
2018-12-26T09:19:54.543Z,1004.78
2018-12-26T09:20:54.686Z,1004.76
2018-12-26T09:21:54.831Z,1004.76
2018-12-26T09:22:54.974Z,1004.79
2018-12-26T09:23:55.118Z,1004.78
2018-12-26T09:24:55.277Z,1004.75
2018-12-26T09:25:55.406Z,1004.73
2018-12-26T09:26:55.549Z,1004.71
2018-12-26T09:27:55.695Z,1004.74
2018-12-26T09:28:55.840Z,1004.76
2018-12-26T09:29:55.984Z,1004.75
2018-12-26T09:30:56.128Z,1004.78
2018-12-26T09:31:56.275Z,1004.69
2018-12-26T09:32:56.418Z,1004.71
2018-12-26T09:33:56.568Z,1004.69
2018-12-26T09:34:56.709Z,1004.68
2018-12-26T09:35:56.857Z,1004.70
2018-12-26T09:36:57.001Z,1004.72
2018-12-26T09:37:57.145Z,1004.70
2018-12-26T09:38:57.289Z,1004.66
2018-12-26T09:39:57.436Z,1004.66
2018-12-26T09:40:57.586Z,1004.67
2018-12-26T09:41:57.728Z,1004.67
2018-12-26T09:42:58.065Z,1004.64
2018-12-26T09:43:58.020Z,1004.62
2018-12-26T09:44:58.167Z,1004.67
2018-12-26T09:45:58.315Z,1004.64
2018-12-26T09:46:58.459Z,1004.66
2018-12-26T09:47:58.601Z,1004.61
2018-12-26T09:48:58.747Z,1004.66
2018-12-26T09:49:58.895Z,1004.64
2018-12-26T09:50:59.038Z,1004.65
2018-12-26T09:51:59.180Z,1004.68
2018-12-26T09:52:59.323Z,1004.62
2018-12-26T09:53:59.470Z,1004.63
2018-12-26T09:54:59.616Z,1004.67
2018-12-26T09:55:59.762Z,1004.65
2018-12-26T09:57:00.005Z,1004.61
2018-12-26T09:58:00.049Z,1004.61
2018-12-26T09:59:00.195Z,1004.62
2018-12-26T10:00:00.414Z,1004.60
2018-12-26T10:01:00.487Z,1004.62
2018-12-26T10:02:00.631Z,1004.64
2018-12-26T10:03:00.776Z,1004.66
2018-12-26T10:04:00.924Z,1004.68
2018-12-26T10:05:01.068Z,1004.65
2018-12-26T10:06:01.212Z,1004.59
2018-12-26T10:07:01.357Z,1004.57
2018-12-26T10:08:01.501Z,1004.58
2018-12-26T10:09:01.650Z,1004.59
2018-12-26T10:10:01.804Z,1004.57
2018-12-26T10:11:01.940Z,1004.57
2018-12-26T10:12:02.084Z,1004.57
2018-12-26T10:13:02.225Z,1004.59
2018-12-26T10:14:02.371Z,1004.61
2018-12-26T10:15:02.517Z,1004.57
2018-12-26T10:16:02.660Z,1004.57
2018-12-26T10:17:02.806Z,1004.65
2018-12-26T10:18:02.951Z,1004.61
2018-12-26T10:19:03.092Z,1004.62
2018-12-26T10:20:03.262Z,1004.66
2018-12-26T10:21:03.419Z,1004.64
2018-12-26T10:22:03.574Z,1004.65
2018-12-26T10:23:03.697Z,1004.60
2018-12-26T10:24:03.842Z,1004.65
2018-12-26T10:25:03.987Z,1004.59
2018-12-26T10:26:04.132Z,1004.56
2018-12-26T10:27:04.275Z,1004.55
2018-12-26T10:28:04.421Z,1004.55
2018-12-26T10:29:04.567Z,1004.52
2018-12-26T10:30:04.710Z,1004.54
2018-12-26T10:31:04.871Z,1004.49
2018-12-26T10:32:05.019Z,1004.50
2018-12-26T10:33:05.174Z,1004.49
2018-12-26T10:34:05.321Z,1004.47
2018-12-26T10:35:05.563Z,1004.49
2018-12-26T10:36:05.585Z,1004.47
2018-12-26T10:37:05.733Z,1004.49
2018-12-26T10:38:05.875Z,1004.47
2018-12-26T10:39:06.016Z,1004.42
2018-12-26T10:40:06.160Z,1004.37
2018-12-26T10:41:06.306Z,1004.41
2018-12-26T10:42:06.450Z,1004.40
2018-12-26T10:43:06.594Z,1004.37
2018-12-26T10:44:06.741Z,1004.39
2018-12-26T10:45:06.887Z,1004.39
2018-12-26T10:46:07.034Z,1004.35
2018-12-26T10:47:07.176Z,1004.32
2018-12-26T10:48:07.322Z,1004.30
2018-12-26T10:49:07.468Z,1004.34
2018-12-26T10:50:07.610Z,1004.35
2018-12-26T10:51:07.756Z,1004.37
2018-12-26T10:52:07.907Z,1004.40
2018-12-26T10:53:08.048Z,1004.38
2018-12-26T10:54:08.194Z,1004.40
2018-12-26T10:55:08.337Z,1004.35
2018-12-26T10:56:08.482Z,1004.36
2018-12-26T10:57:08.649Z,1004.37
2018-12-26T10:58:08.796Z,1004.42
2018-12-26T10:59:10.378Z,1004.43
2018-12-26T11:00:09.087Z,1004.41
2018-12-26T11:01:09.232Z,1004.42
2018-12-26T11:02:09.380Z,1004.42
2018-12-26T11:03:09.542Z,1004.42
2018-12-26T11:04:09.676Z,1004.41
2018-12-26T11:05:09.818Z,1004.44
2018-12-26T11:06:09.962Z,1004.42
2018-12-26T11:07:10.108Z,1004.41
2018-12-26T11:08:10.253Z,1004.40
2018-12-26T11:09:10.398Z,1004.37
2018-12-26T11:10:10.545Z,1004.35
2018-12-26T11:11:10.689Z,1004.36
2018-12-26T11:12:10.833Z,1004.35
2018-12-26T11:13:10.976Z,1004.34
2018-12-26T11:14:11.120Z,1004.29
2018-12-26T11:15:11.263Z,1004.29
2018-12-26T11:16:11.443Z,1004.30
2018-12-26T11:17:11.592Z,1004.29
2018-12-26T11:18:11.735Z,1004.24
2018-12-26T11:19:12.004Z,1004.28
2018-12-26T11:20:12.022Z,1004.29
2018-12-26T11:21:12.171Z,1004.28
2018-12-26T11:22:12.313Z,1004.28
2018-12-26T11:23:12.457Z,1004.30
2018-12-26T11:24:12.607Z,1004.25
2018-12-26T11:25:12.813Z,1004.22
2018-12-26T11:26:12.859Z,1004.26
2018-12-26T11:27:13.009Z,1004.25
2018-12-26T11:28:13.148Z,1004.23
2018-12-26T11:29:18.513Z,1004.24
2018-12-26T11:30:13.441Z,1004.22
2018-12-26T11:31:13.658Z,1004.24
2018-12-26T11:32:13.681Z,1004.22
2018-12-26T11:33:13.833Z,1004.15
2018-12-26T11:34:13.977Z,1004.12
2018-12-26T11:35:14.205Z,1004.14
2018-12-26T11:36:14.277Z,1004.08
2018-12-26T11:37:14.424Z,1004.13
2018-12-26T11:38:14.592Z,1004.09
2018-12-26T11:39:14.736Z,1004.04
2018-12-26T11:40:14.887Z,1004.03
2018-12-26T11:41:15.022Z,1004.04
2018-12-26T11:42:15.182Z,1004.02
2018-12-26T11:43:15.333Z,1004.06
2018-12-26T11:44:15.505Z,1004.06
2018-12-26T11:45:15.655Z,1004.04
2018-12-26T11:46:15.801Z,1003.97
2018-12-26T11:47:15.949Z,1003.95
2018-12-26T11:48:16.094Z,1003.99
2018-12-26T11:49:16.292Z,1003.96
2018-12-26T11:50:16.384Z,1003.95
2018-12-26T11:51:16.530Z,1003.94
2018-12-26T11:52:16.715Z,1003.92
2018-12-26T11:53:16.858Z,1003.91
2018-12-26T11:54:17.014Z,1003.94
2018-12-26T11:55:17.222Z,1003.90
2018-12-26T11:56:17.372Z,1003.94
2018-12-26T11:57:17.515Z,1003.88
2018-12-26T11:58:17.659Z,1003.88
2018-12-26T11:59:17.816Z,1003.84
2018-12-26T12:00:17.959Z,1003.91
2018-12-26T12:01:18.104Z,1003.94
2018-12-26T12:02:20.681Z,1003.92
2018-12-26T12:03:18.398Z,1003.94
2018-12-26T12:04:18.546Z,1003.90
2018-12-26T12:05:18.687Z,1003.93
2018-12-26T12:06:18.842Z,1003.92
2018-12-26T12:07:19.025Z,1003.92